Time;durP1;ratioP1;P1;durP2;ratioP2;P2;SDS_P1;SDS_P2;PMS_P1;PMS_P2;Temp;Humidity;BMP_temperature;BMP_pressure;BME280_temperature;BME280_humidity;BME280_pressure;Samples;Min_cycle;Max_cycle;Signal;HPM_P1;HPM_P2
2022/05/07 00:01:47;;;;;;;21.80;11.70;;;8.60;1.00;;;;;;10436722;28;20248;-79
2022/05/07 00:07:08;;;;;;;22.67;12.30;;;8.60;1.00;;;;;;10436232;28;20203;-80
2022/05/07 00:12:29;;;;;;;20.17;11.27;;;8.50;1.00;;;;;;10455743;28;20193;-79
2022/05/07 00:18:06;;;;;;;22.57;11.20;;;8.40;1.00;;;;;;10478836;28;20189;-78
2022/05/07 00:23:27;;;;;;;18.37;10.97;;;8.40;1.00;;;;;;10459825;28;20436;-79
2022/05/07 00:28:48;;;;;;;21.03;11.33;;;8.40;1.00;;;;;;10436518;28;20284;-79
2022/05/07 00:34:10;;;;;;;20.67;11.13;;;8.30;1.00;;;;;;11268032;23;20260;-87
2022/05/07 00:39:32;;;;;;;19.97;11.43;;;8.20;1.00;;;;;;10369731;28;20201;-85
2022/05/07 00:44:53;;;;;;;21.70;10.87;;;8.20;1.00;;;;;;10409478;28;20226;-87
2022/05/07 00:55:56;;;;;;;16.67;10.70;;;8.10;1.00;;;;;;10362684;28;20295;-86
2022/05/07 01:01:17;;;;;;;15.27;9.10;;;8.00;1.00;;;;;;10349052;28;20271;-86
2022/05/07 01:06:40;;;;;;;13.97;8.17;;;8.00;9.30;;;;;;10348355;28;20240;-87
2022/05/07 01:12:04;;;;;;;13.63;7.30;;;7.90;9.70;;;;;;10382312;28;20201;-87
2022/05/07 01:17:27;;;;;;;8.67;6.03;;;7.80;10.90;;;;;;10402785;28;20201;-86
2022/05/07 01:22:49;;;;;;;15.33;7.30;;;7.80;17.80;;;;;;10402625;28;20539;-87
2022/05/07 01:28:19;;;;;;;13.07;6.83;;;7.80;28.30;;;;;;10375797;28;20204;-87
2022/05/07 01:33:40;;;;;;;10.87;6.43;;;7.80;22.50;;;;;;10387715;28;20226;-87
2022/05/07 01:39:07;;;;;;;12.90;7.63;;;7.70;30.20;;;;;;10412181;28;20359;-87
2022/05/07 01:44:29;;;;;;;11.70;7.03;;;7.70;38.60;;;;;;10428162;28;20237;-86
2022/05/07 01:49:51;;;;;;;12.13;7.60;;;7.70;18.10;;;;;;10442299;28;20198;-83
2022/05/07 01:55:16;;;;;;;16.60;8.17;;;7.70;20.20;;;;;;10428433;28;20207;-88
2022/05/07 02:00:41;;;;;;;17.83;9.77;;;7.60;19.90;;;;;;10414356;28;20562;-85
2022/05/07 02:06:04;;;;;;;9.20;7.53;;;7.50;28.10;;;;;;10414150;28;20225;-86
2022/05/07 02:11:25;;;;;;;11.97;8.10;;;7.50;28.10;;;;;;10387051;28;20198;-86
2022/05/07 02:16:46;;;;;;;11.40;8.30;;;7.40;36.00;;;;;;10386022;28;20204;-87
2022/05/07 02:22:08;;;;;;;12.50;8.40;;;7.40;33.80;;;;;;10386670;28;20198;-86
2022/05/07 02:27:29;;;;;;;12.23;7.50;;;7.40;33.20;;;;;;10399991;28;20200;-88
2022/05/07 02:32:53;;;;;;;14.27;7.67;;;7.50;34.50;;;;;;10385903;28;20210;-84
2022/05/07 02:38:14;;;;;;;9.73;6.50;;;7.60;34.10;;;;;;10385111;28;20317;-87
2022/05/07 02:43:37;;;;;;;12.40;7.10;;;7.60;34.00;;;;;;10385918;28;20384;-87
2022/05/07 02:49:09;;;;;;;16.47;9.03;;;7.70;22.20;;;;;;10399438;28;20488;-87
2022/05/07 02:54:30;;;;;;;17.10;9.70;;;7.60;11.60;;;;;;10385571;28;20378;-87
2022/05/07 02:59:51;;;;;;;15.27;8.70;;;7.60;18.70;;;;;;10370742;28;20248;-88
2022/05/07 03:05:13;;;;;;;18.27;9.07;;;7.70;25.70;;;;;;10384561;28;20229;-87
2022/05/07 03:10:36;;;;;;;17.57;10.77;;;7.80;18.00;;;;;;10384877;28;20225;-88
2022/05/07 03:15:58;;;;;;;17.73;10.90;;;7.80;6.60;;;;;;10412208;28;20205;-87
2022/05/07 03:21:20;;;;;;;18.37;10.20;;;7.80;9.20;;;;;;10385567;28;20269;-87
2022/05/07 03:26:41;;;;;;;11.43;7.23;;;7.80;27.10;;;;;;10370311;28;20230;-87
2022/05/07 03:32:04;;;;;;;9.00;6.73;;;7.90;28.80;;;;;;10383118;28;20203;-86
2022/05/07 03:37:26;;;;;;;15.50;8.43;;;7.90;25.90;;;;;;10382565;28;20238;-83
2022/05/07 03:42:48;;;;;;;13.70;8.47;;;7.90;27.50;;;;;;10382599;28;20402;-87
2022/05/07 03:48:09;;;;;;;11.50;7.80;;;7.90;28.60;;;;;;10383043;28;20202;-88
2022/05/07 03:53:31;;;;;;;14.97;7.93;;;7.90;37.30;;;;;;10383068;28;20199;-87
2022/05/07 03:59:01;;;;;;;14.50;7.70;;;8.00;28.50;;;;;;10382554;28;20272;-88
2022/05/07 04:04:33;;;;;;;10.60;7.60;;;8.10;27.70;;;;;;10396794;28;20294;-86
2022/05/07 04:10:02;;;;;;;11.47;7.37;;;8.20;29.60;;;;;;10369374;28;20202;-87
2022/05/07 04:15:27;;;;;;;11.87;6.60;;;8.30;26.20;;;;;;10382222;28;20206;-87
2022/05/07 04:20:53;;;;;;;11.80;6.83;;;8.50;22.50;;;;;;10383083;28;20235;-88
2022/05/07 04:26:16;;;;;;;10.07;6.47;;;8.60;22.00;;;;;;10368648;28;20555;-87
2022/05/07 04:31:41;;;;;;;10.73;6.50;;;8.80;14.60;;;;;;10368868;28;20210;-89
2022/05/07 04:37:03;;;;;;;13.40;7.30;;;8.90;11.20;;;;;;10367805;28;20306;-88
2022/05/07 04:42:25;;;;;;;13.80;7.93;;;9.10;4.20;;;;;;10368215;28;20263;-86
2022/05/07 04:47:55;;;;;;;12.17;7.67;;;9.10;3.70;;;;;;10395803;28;20191;-87
2022/05/07 04:53:22;;;;;;;11.80;7.37;;;9.20;8.40;;;;;;10395850;28;20214;-88
2022/05/07 04:58:45;;;;;;;13.97;8.70;;;9.40;4.50;;;;;;10368084;28;20241;-86
2022/05/07 05:04:07;;;;;;;13.87;7.53;;;9.50;4.90;;;;;;10381978;28;20297;-88
2022/05/07 05:09:30;;;;;;;14.57;7.40;;;9.80;13.30;;;;;;10395305;28;20267;-88
2022/05/07 05:15:03;;;;;;;13.03;7.17;;;10.00;18.40;;;;;;10381386;28;20211;-88
2022/05/07 05:20:54;;;;;;;9.40;6.90;;;10.40;27.40;;;;;;10382882;28;20204;-88
2022/05/07 05:26:20;;;;;;;7.47;5.70;;;10.80;25.10;;;;;;10388592;28;20232;-87
2022/05/07 05:31:48;;;;;;;5.40;4.00;;;11.10;11.60;;;;;;10376142;28;20490;-88
2022/05/07 05:37:30;;;;;;;9.37;6.03;;;11.20;1.00;;;;;;10376995;28;20243;-88
2022/05/07 05:42:52;;;;;;;9.20;7.33;;;11.30;1.00;;;;;;10387914;28;20236;-88
2022/05/07 05:48:14;;;;;;;13.33;9.63;;;11.40;1.00;;;;;;10402265;28;20198;-88
2022/05/07 05:53:39;;;;;;;12.30;7.40;;;11.60;1.00;;;;;;10401617;28;20237;-89
2022/05/07 05:59:03;;;;;;;12.77;8.87;;;11.80;1.00;;;;;;10387894;28;20200;-88
2022/05/07 06:04:34;;;;;;;14.45;6.95;;;12.00;1.00;;;;;;10386842;28;20230;-85
2022/05/07 06:10:09;;;;;;;8.90;5.65;;;12.10;1.00;;;;;;10388946;28;20200;-84
2022/05/07 06:15:30;;;;;;;8.48;5.50;;;12.10;1.00;;;;;;10400815;28;20273;-84
2022/05/07 06:20:52;;;;;;;10.85;7.13;;;12.50;1.00;;;;;;10386089;28;20224;-88
2022/05/07 06:32:02;;;;;;;5.60;3.50;;;12.60;1.00;;;;;;10399299;28;20201;-89
2022/05/07 06:37:24;;;;;;;18.75;10.40;;;12.60;1.00;;;;;;10385388;28;20309;-88
2022/05/07 06:42:48;;;;;;;11.95;8.35;;;12.60;1.00;;;;;;10385933;28;20467;-86
2022/05/07 06:48:32;;;;;;;5.88;3.95;;;12.80;1.00;;;;;;10370301;28;20208;-88
2022/05/07 06:54:01;;;;;;;4.20;3.30;;;12.90;1.00;;;;;;10366476;28;20510;-87
2022/05/07 06:59:23;;;;;;;4.00;2.90;;;12.80;1.00;;;;;;10366711;28;20218;-87
2022/05/07 07:04:44;;;;;;;5.47;3.58;;;12.70;1.00;;;;;;10366325;28;20240;-87
2022/05/07 07:10:06;;;;;;;7.40;4.88;;;12.80;1.00;;;;;;10370661;28;20279;-87
2022/05/07 07:15:27;;;;;;;9.07;3.92;;;12.90;1.00;;;;;;10378593;28;20225;-86
2022/05/07 07:20:49;;;;;;;4.88;2.72;;;12.90;1.00;;;;;;10382016;28;20201;-87
2022/05/07 07:26:10;;;;;;;3.42;2.60;;;13.10;1.00;;;;;;10383621;28;20267;-88
2022/05/07 07:31:32;;;;;;;4.00;2.88;;;13.40;1.00;;;;;;10383703;28;20202;-86
2022/05/07 07:36:53;;;;;;;4.55;2.88;;;13.80;1.00;;;;;;10382784;28;20584;-88
2022/05/07 07:42:17;;;;;;;3.45;2.45;;;13.90;1.00;;;;;;10397353;28;20222;-88
2022/05/07 07:53:20;;;;;;;4.13;2.72;;;14.60;1.00;;;;;;10382845;28;20278;-88
2022/05/07 07:58:42;;;;;;;4.63;3.20;;;14.70;99.90;;;;;;10397832;28;20202;-86
2022/05/07 08:04:04;;;;;;;3.10;2.75;;;14.70;99.90;;;;;;10368845;28;20248;-87
2022/05/07 08:15:06;;;;;;;5.13;2.78;;;15.00;99.90;;;;;;10382634;28;20215;-87
2022/05/07 08:20:27;;;;;;;2.70;2.25;;;15.30;99.90;;;;;;10382012;28;20207;-86
2022/05/07 08:25:49;;;;;;;2.83;2.30;;;15.90;99.90;;;;;;10382116;28;20235;-87
2022/05/07 08:31:11;;;;;;;3.70;3.05;;;16.50;1.00;;;;;;10381621;28;20211;-86
2022/05/07 08:36:33;;;;;;;3.53;2.92;;;17.00;1.00;;;;;;10394789;28;20236;-84
2022/05/07 08:41:56;;;;;;;4.40;2.80;;;18.00;1.00;;;;;;10381580;28;20510;-83
2022/05/07 08:47:18;;;;;;;2.33;2.13;;;18.30;1.00;;;;;;10394927;28;20235;-85
2022/05/07 08:52:43;;;;;;;2.92;2.45;;;19.00;1.00;;;;;;10381698;28;20272;-88
2022/05/07 08:58:05;;;;;;;4.30;2.67;;;20.20;1.00;;;;;;10374581;28;20215;-89
2022/05/07 09:03:46;;;;;;;4.72;2.85;;;21.00;99.90;;;;;;10389261;28;20228;-87
2022/05/07 09:09:07;;;;;;;4.18;2.40;;;21.70;1.00;;;;;;10389506;28;20205;-88
2022/05/07 09:14:31;;;;;;;3.22;2.92;;;22.10;99.90;;;;;;10389211;28;20201;-86
2022/05/07 09:19:52;;;;;;;3.38;2.83;;;22.50;1.00;;;;;;10388413;28;20204;-85
2022/05/07 09:25:20;;;;;;;2.78;2.47;;;22.90;1.00;;;;;;10388594;28;20531;-84
2022/05/07 09:30:44;;;;;;;3.83;2.53;;;23.10;1.00;;;;;;10401749;28;20199;-87
2022/05/07 09:36:10;;;;;;;4.97;2.80;;;23.40;1.00;;;;;;10387308;28;20324;-85
2022/05/07 09:41:31;;;;;;;8.68;2.67;;;24.10;1.00;;;;;;10387819;28;20202;-86
2022/05/07 09:46:52;;;;;;;5.68;1.95;;;24.80;99.90;;;;;;10387343;28;20225;-88
2022/05/07 09:52:15;;;;;;;3.70;2.38;;;23.90;99.90;;;;;;10402323;28;20195;-89
2022/05/07 09:57:38;;;;;;;3.55;2.30;;;23.40;96.10;;;;;;10374106;28;20276;-88
2022/05/07 10:03:46;;;;;;;2.47;2.28;;;23.00;99.90;;;;;;10373097;28;20545;-87
2022/05/07 10:09:41;;;;;;;2.63;2.30;;;22.40;99.90;;;;;;10315918;28;20556;-85
2022/05/07 10:15:07;;;;;;;2.92;1.95;;;22.30;99.90;;;;;;10317125;28;20210;-89
2022/05/07 10:20:44;;;;;;;5.72;2.15;;;22.10;99.90;;;;;;10290640;28;20591;-89
2022/05/07 10:26:05;;;;;;;5.07;2.53;;;21.70;99.90;;;;;;10287534;28;20234;-86
2022/05/07 10:31:26;;;;;;;3.90;2.40;;;21.10;99.90;;;;;;10300310;28;20198;-84
2022/05/07 10:36:58;;;;;;;3.95;2.90;;;20.60;99.90;;;;;;10302453;28;20245;-87
2022/05/07 10:42:22;;;;;;;4.00;2.38;;;20.30;99.90;;;;;;10349719;28;20259;-88
2022/05/07 10:47:55;;;;;;;4.78;2.53;;;20.00;99.90;;;;;;10385938;28;20542;-85
2022/05/07 10:53:21;;;;;;;7.03;2.38;;;19.70;99.90;;;;;;10385658;28;20224;-87
2022/05/07 10:58:51;;;;;;;5.45;2.28;;;19.70;99.90;;;;;;10388434;28;20257;-85
2022/05/07 11:04:17;;;;;;;5.40;2.40;;;19.90;99.90;;;;;;10393962;28;20240;-88
2022/05/07 11:09:48;;;;;;;6.70;2.38;;;20.00;99.90;;;;;;10385177;28;20205;-87
2022/05/07 11:15:10;;;;;;;6.25;2.67;;;19.90;99.90;;;;;;10370622;28;20201;-84
2022/05/07 11:20:32;;;;;;;5.28;2.70;;;20.00;99.90;;;;;;10383921;28;20255;-88
2022/05/07 11:25:53;;;;;;;4.15;2.30;;;19.80;99.90;;;;;;10383604;28;20259;-87
2022/05/07 11:31:30;;;;;;;3.83;2.75;;;19.60;99.90;;;;;;10383757;28;20205;-85
2022/05/07 11:36:55;;;;;;;4.72;2.55;;;19.30;99.90;;;;;;10383635;28;20429;-88
2022/05/07 11:42:32;;;;;;;5.68;2.95;;;19.00;1.00;;;;;;10369347;28;20204;-86
2022/05/07 11:48:14;;;;;;;6.93;3.00;;;18.70;1.00;;;;;;10372109;28;20228;-85
2022/05/07 11:53:36;;;;;;;5.10;2.75;;;18.40;1.00;;;;;;10369809;28;20495;-88
2022/05/07 11:59:00;;;;;;;15.82;3.28;;;18.30;1.00;;;;;;10396519;28;20197;-86
2022/05/07 12:04:31;;;;;;;5.43;2.67;;;18.30;1.00;;;;;;10396444;28;20239;-88
2022/05/07 12:09:54;;;;;;;5.05;2.75;;;18.40;1.00;;;;;;10396226;28;20265;-86
2022/05/07 12:15:16;;;;;;;5.57;3.13;;;18.40;77.90;;;;;;10382266;28;20200;-87
2022/05/07 12:20:37;;;;;;;4.57;2.42;;;18.50;99.90;;;;;;10382459;28;20193;-89
2022/05/07 12:31:38;;;;;;;6.15;3.17;;;18.60;99.90;;;;;;10395229;28;20194;-88
2022/05/07 12:37:00;;;;;;;6.88;3.25;;;18.60;99.90;;;;;;10381399;28;20241;-88
2022/05/07 12:42:23;;;;;;;7.60;3.45;;;18.60;99.90;;;;;;10395712;28;20201;-89
2022/05/07 12:47:45;;;;;;;7.75;3.20;;;18.30;99.90;;;;;;10395797;28;20220;-88
2022/05/07 12:53:06;;;;;;;7.90;3.30;;;18.30;99.90;;;;;;10382758;28;20216;-88
2022/05/07 12:58:28;;;;;;;6.35;2.95;;;18.30;1.00;;;;;;10384695;28;20209;-82
2022/05/07 13:03:52;;;;;;;8.57;3.42;;;18.30;1.00;;;;;;10403572;28;20271;-86
2022/05/07 13:09:13;;;;;;;7.15;3.20;;;18.40;1.00;;;;;;10382200;28;20197;-88
2022/05/07 13:14:35;;;;;;;7.30;3.85;;;18.50;1.00;;;;;;10368011;28;20268;-89
2022/05/07 13:19:56;;;;;;;4.72;3.35;;;18.70;1.00;;;;;;10381276;28;20505;-86
2022/05/07 13:25:19;;;;;;;10.30;3.85;;;18.80;1.00;;;;;;10381131;28;20244;-88
2022/05/07 13:30:41;;;;;;;4.95;3.08;;;18.70;1.00;;;;;;10381080;28;20390;-89
2022/05/07 13:36:03;;;;;;;6.35;3.10;;;18.60;1.00;;;;;;10380168;28;20425;-89
2022/05/07 13:41:28;;;;;;;5.68;3.05;;;18.50;1.00;;;;;;10382800;28;20228;-88
2022/05/07 13:46:50;;;;;;;4.90;3.20;;;18.30;99.90;;;;;;10374340;28;20255;-89
2022/05/07 13:52:12;;;;;;;4.40;2.92;;;18.20;99.90;;;;;;10402679;28;20380;-89
2022/05/07 13:57:34;;;;;;;4.45;3.40;;;18.20;1.00;;;;;;10402838;28;20424;-87
2022/05/07 14:02:56;;;;;;;5.97;3.40;;;18.30;1.00;;;;;;10401676;28;20216;-88
2022/05/07 14:08:18;;;;;;;12.27;3.63;;;18.20;1.00;;;;;;10386971;28;20274;-88
2022/05/07 14:13:40;;;;;;;6.22;3.92;;;18.20;1.00;;;;;;10387496;28;20212;-88
2022/05/07 14:19:02;;;;;;;9.07;4.10;;;18.20;1.00;;;;;;10386787;28;20365;-89
2022/05/07 14:24:23;;;;;;;6.53;4.10;;;18.10;1.00;;;;;;10372785;28;20296;-88
2022/05/07 14:29:44;;;;;;;7.75;4.32;;;17.90;1.00;;;;;;10386897;28;20193;-86
2022/05/07 14:35:09;;;;;;;15.00;4.85;;;17.80;99.90;;;;;;10399702;28;20244;-88
2022/05/07 14:40:33;;;;;;;7.85;4.05;;;18.00;99.90;;;;;;10359438;28;20220;-88
2022/05/07 14:45:54;;;;;;;5.25;4.50;;;18.30;99.90;;;;;;10359446;28;20233;-88
2022/05/07 14:51:16;;;;;;;8.18;4.18;;;18.40;25.90;;;;;;10345978;28;20206;-87
2022/05/07 14:56:38;;;;;;;3.90;3.50;;;18.40;71.70;;;;;;10355611;28;20201;-89
2022/05/07 15:01:59;;;;;;;6.90;4.38;;;18.40;99.90;;;;;;10345001;28;20495;-83
2022/05/07 15:07:20;;;;;;;9.30;4.55;;;18.50;1.00;;;;;;10343924;28;20409;-84
2022/05/07 15:12:41;;;;;;;8.95;3.55;;;18.30;1.00;;;;;;10357745;28;20194;-82
2022/05/07 15:18:03;;;;;;;7.90;4.10;;;18.30;1.00;;;;;;10343991;28;20194;-88
2022/05/07 15:23:27;;;;;;;4.82;3.22;;;18.30;1.00;;;;;;10344003;28;20206;-88
2022/05/07 15:28:48;;;;;;;9.52;3.47;;;18.20;1.00;;;;;;10357095;28;20197;-88
2022/05/07 15:39:50;;;;;;;6.18;2.58;;;18.30;1.00;;;;;;10397328;28;20276;-88
2022/05/07 15:45:12;;;;;;;10.15;2.75;;;18.30;99.90;;;;;;10369777;28;20237;-87
2022/05/07 15:50:34;;;;;;;6.63;2.40;;;18.20;99.90;;;;;;10369553;28;20499;-86
2022/05/07 15:55:55;;;;;;;7.13;2.38;;;18.30;99.90;;;;;;10397099;28;20197;-88
2022/05/07 16:01:25;;;;;;;5.47;2.97;;;18.30;52.10;;;;;;10382681;28;20227;-88
2022/05/07 16:06:46;;;;;;;3.75;1.67;;;18.20;4.10;;;;;;10396391;28;20221;-88
2022/05/07 16:12:27;;;;;;;7.47;3.03;;;18.10;1.00;;;;;;10396744;28;20196;-88
2022/05/07 16:17:49;;;;;;;3.83;2.40;;;17.90;1.00;;;;;;10382402;28;20211;-87
2022/05/07 16:28:51;;;;;;;4.38;1.35;;;17.50;1.00;;;;;;10396570;28;20203;-88
2022/05/07 16:34:12;;;;;;;2.05;1.20;;;17.40;1.00;;;;;;10395325;28;20251;-88
2022/05/07 16:39:33;;;;;;;1.67;1.10;;;17.30;1.00;;;;;;10357313;28;20208;-87
2022/05/07 16:44:55;;;;;;;3.22;1.85;;;17.30;1.00;;;;;;10340717;28;20527;-85
2022/05/07 16:50:17;;;;;;;3.92;2.47;;;17.20;1.00;;;;;;10354947;28;20196;-88
2022/05/07 16:55:39;;;;;;;4.13;2.55;;;17.20;1.00;;;;;;10341161;28;20231;-86
2022/05/07 17:01:01;;;;;;;5.40;2.92;;;17.00;50.70;;;;;;10340639;28;20205;-86
2022/05/07 17:06:27;;;;;;;8.50;3.63;;;17.00;99.90;;;;;;10341336;28;20256;-86
2022/05/07 17:11:48;;;;;;;6.85;3.25;;;16.90;99.90;;;;;;10327242;28;20202;-88
2022/05/07 17:17:10;;;;;;;4.65;2.88;;;16.90;1.00;;;;;;10343642;28;20206;-87
2022/05/07 17:22:31;;;;;;;4.80;3.08;;;16.90;1.00;;;;;;10348454;28;20396;-87
2022/05/07 17:27:53;;;;;;;4.45;2.83;;;16.70;99.90;;;;;;10362722;28;20301;-87
2022/05/07 17:33:15;;;;;;;7.10;3.53;;;16.70;1.00;;;;;;10361758;28;20542;-86
2022/05/07 17:38:38;;;;;;;4.55;2.30;;;16.60;99.90;;;;;;10397704;28;20251;-87
2022/05/07 17:44:03;;;;;;;3.15;2.20;;;16.50;49.50;;;;;;10401940;28;20227;-87
2022/05/07 17:49:26;;;;;;;3.47;2.53;;;16.30;99.90;;;;;;10387535;28;20249;-86
2022/05/07 17:54:48;;;;;;;3.40;2.35;;;16.20;1.00;;;;;;10387543;28;20202;-88
2022/05/07 18:00:10;;;;;;;8.50;4.28;;;16.10;9.60;;;;;;10401224;28;20204;-88
2022/05/07 18:05:33;;;;;;;7.13;4.43;;;15.90;1.00;;;;;;10387559;28;20265;-86
2022/05/07 18:10:58;;;;;;;5.53;2.60;;;15.90;93.70;;;;;;10387983;28;20194;-88
2022/05/07 18:16:22;;;;;;;3.92;3.30;;;15.70;99.90;;;;;;10386774;28;20490;-87
2022/05/07 18:21:46;;;;;;;6.38;3.30;;;15.60;1.00;;;;;;10387074;28;20225;-88
2022/05/07 18:27:08;;;;;;;4.43;3.22;;;15.40;1.00;;;;;;10399435;28;20266;-88
2022/05/07 18:32:29;;;;;;;3.42;2.00;;;15.30;1.00;;;;;;10396001;28;20195;-86
2022/05/07 18:43:31;;;;;;;4.90;2.67;;;15.00;1.00;;;;;;10399459;28;20268;-85
2022/05/07 18:48:52;;;;;;;3.83;2.72;;;14.90;1.00;;;;;;10385225;28;20242;-86
2022/05/07 18:54:13;;;;;;;2.83;2.28;;;14.80;1.00;;;;;;10385241;28;20204;-86
2022/05/07 18:59:36;;;;;;;4.80;2.40;;;14.60;1.00;;;;;;10384700;28;20232;-88
2022/05/07 19:04:57;;;;;;;2.80;1.92;;;14.50;1.00;;;;;;10384981;28;20219;-84
2022/05/07 19:10:19;;;;;;;5.45;2.92;;;14.40;1.00;;;;;;10371104;28;20228;-86
2022/05/07 19:15:42;;;;;;;8.63;3.22;;;14.20;1.00;;;;;;10384722;28;20386;-85
2022/05/07 19:21:06;;;;;;;8.07;3.45;;;14.20;1.00;;;;;;10371234;28;20203;-87
2022/05/07 19:26:28;;;;;;;6.55;3.30;;;14.10;1.00;;;;;;10383812;28;20310;-86
2022/05/07 19:31:53;;;;;;;3.65;2.83;;;14.00;1.00;;;;;;10383689;28;20203;-86
2022/05/07 19:37:15;;;;;;;4.28;2.65;;;13.90;1.00;;;;;;10383140;28;20247;-88
2022/05/07 19:42:37;;;;;;;4.22;2.72;;;13.80;1.00;;;;;;10383044;28;20198;-87
2022/05/07 19:47:58;;;;;;;5.88;2.95;;;13.80;1.00;;;;;;10383127;28;20313;-85
2022/05/07 19:53:22;;;;;;;4.25;2.72;;;13.70;1.00;;;;;;10396891;28;20228;-87
2022/05/07 19:58:45;;;;;;;4.13;2.90;;;13.60;1.00;;;;;;10383209;28;20452;-87
2022/05/07 20:04:06;;;;;;;3.72;2.97;;;13.50;1.00;;;;;;10397111;28;20199;-85
2022/05/07 20:09:28;;;;;;;2.85;2.45;;;13.50;1.00;;;;;;10382046;28;20231;-87
2022/05/07 20:14:50;;;;;;;5.40;2.90;;;13.40;1.00;;;;;;10382680;28;20417;-87
2022/05/07 20:20:11;;;;;;;4.07;2.42;;;13.30;1.00;;;;;;10382117;28;20194;-86
2022/05/07 20:25:36;;;;;;;3.42;2.65;;;13.20;1.00;;;;;;10368530;28;20456;-86
2022/05/07 20:30:59;;;;;;;3.20;2.35;;;13.10;1.00;;;;;;10381831;28;20503;-87
2022/05/07 20:36:20;;;;;;;3.70;3.00;;;13.10;1.00;;;;;;10381542;28;20230;-86
2022/05/07 20:41:42;;;;;;;4.20;3.10;;;13.00;1.00;;;;;;10381368;28;20225;-87
2022/05/07 20:47:03;;;;;;;8.43;5.47;;;12.90;1.00;;;;;;10381514;28;20538;-86
2022/05/07 20:52:25;;;;;;;14.98;8.32;;;12.80;1.00;;;;;;10385021;28;20389;-85
2022/05/07 20:57:47;;;;;;;13.43;8.23;;;12.70;1.00;;;;;;10389622;28;20202;-85
2022/05/07 21:03:08;;;;;;;17.23;9.15;;;12.50;1.00;;;;;;10404410;28;20269;-86
2022/05/07 21:08:30;;;;;;;15.18;7.25;;;12.50;1.00;;;;;;10389534;28;20225;-86
2022/05/07 21:13:52;;;;;;;11.35;6.47;;;12.40;1.00;;;;;;10375404;28;20203;-85
2022/05/07 21:19:13;;;;;;;8.55;5.15;;;12.40;1.00;;;;;;10402969;28;20200;-82
2022/05/07 21:30:14;;;;;;;6.30;4.03;;;12.20;1.00;;;;;;10388078;28;20237;-82
2022/05/07 21:35:37;;;;;;;6.78;4.10;;;12.20;1.00;;;;;;10373601;28;20236;-84
2022/05/07 21:40:59;;;;;;;5.18;3.67;;;12.20;1.00;;;;;;10388106;28;20514;-86
2022/05/07 21:46:21;;;;;;;4.35;3.80;;;12.10;1.00;;;;;;10374084;28;20229;-83
2022/05/07 21:51:55;;;;;;;7.68;4.45;;;12.10;1.00;;;;;;10387412;28;20203;-85
2022/05/07 21:57:16;;;;;;;5.57;4.20;;;12.00;1.00;;;;;;10373855;28;20276;-86
2022/05/07 22:02:37;;;;;;;5.25;4.47;;;12.00;1.00;;;;;;10387410;28;20419;-85
2022/05/07 22:07:58;;;;;;;7.47;4.90;;;11.90;1.00;;;;;;10400713;28;20221;-86
2022/05/07 22:13:21;;;;;;;5.53;4.55;;;11.90;1.00;;;;;;10387520;28;20237;-87
2022/05/07 22:18:42;;;;;;;7.70;5.38;;;11.70;1.00;;;;;;10373199;28;20499;-83
2022/05/07 22:24:04;;;;;;;7.43;4.60;;;11.80;1.00;;;;;;10373302;28;20224;-86
2022/05/07 22:29:26;;;;;;;6.72;3.55;;;11.80;1.00;;;;;;10386504;28;20228;-87
2022/05/07 22:34:47;;;;;;;5.57;4.05;;;11.70;1.00;;;;;;10385671;28;20241;-87
2022/05/07 22:40:09;;;;;;;6.25;4.15;;;11.70;1.00;;;;;;10348196;28;20261;-86
2022/05/07 22:45:30;;;;;;;8.10;3.90;;;11.70;1.00;;;;;;10364723;28;20237;-86
2022/05/07 22:50:52;;;;;;;4.50;3.60;;;11.60;1.00;;;;;;10345693;28;20487;-87
2022/05/07 22:56:13;;;;;;;6.22;3.97;;;11.50;1.00;;;;;;10345196;28;20278;-86
2022/05/07 23:01:35;;;;;;;4.80;3.67;;;11.50;2.10;;;;;;10344903;28;20248;-88
2022/05/07 23:06:57;;;;;;;7.70;4.13;;;11.50;6.50;;;;;;10331125;28;20233;-87
2022/05/07 23:12:18;;;;;;;4.80;3.53;;;11.40;7.80;;;;;;10344291;28;20198;-87
2022/05/07 23:17:43;;;;;;;4.15;3.72;;;11.30;11.70;;;;;;10343903;28;20493;-85
2022/05/07 23:23:04;;;;;;;4.72;3.65;;;11.20;14.10;;;;;;10343848;28;20198;-87
2022/05/07 23:28:25;;;;;;;8.07;5.63;;;11.10;15.00;;;;;;10357158;28;20240;-88
2022/05/07 23:33:47;;;;;;;7.68;5.72;;;11.00;19.50;;;;;;10343188;28;20205;-87
2022/05/07 23:39:09;;;;;;;9.98;7.05;;;10.90;25.30;;;;;;10372448;28;20213;-88
2022/05/07 23:44:30;;;;;;;11.85;7.35;;;10.90;27.40;;;;;;10383594;28;20201;-87
2022/05/07 23:49:51;;;;;;;10.87;7.20;;;10.90;27.50;;;;;;10382950;28;20523;-86
2022/05/07 23:55:13;;;;;;;12.63;6.10;;;10.90;29.90;;;;;;10397491;28;20223;-87
